Time;durP1;ratioP1;P1;durP2;ratioP2;P2;SDS_P1;SDS_P2;PMS_P1;PMS_P2;Temp;Humidity;BMP_temperature;BMP_pressure;BME280_temperature;BME280_humidity;BME280_pressure;Samples;Min_cycle;Max_cycle;Signal;HPM_P1;HPM_P2
2023/10/27 00:00:54;;;;;;;19.10;12.10;;;;;;;14.96;100.00;97476.46;109726;1251;60472;-52
2023/10/27 00:03:21;;;;;;;10.40;8.50;;;;;;;14.99;100.00;97474.89;109461;1250;59066;-52
2023/10/27 00:05:48;;;;;;;11.70;7.90;;;;;;;14.97;100.00;97473.98;109767;1251;73216;-52
2023/10/27 00:08:14;;;;;;;13.00;8.00;;;;;;;15.03;100.00;97475.55;109793;1251;69202;-52
2023/10/27 00:10:41;;;;;;;10.30;6.90;;;;;;;15.04;100.00;97471.11;109568;1251;72461;-53
2023/10/27 00:13:08;;;;;;;11.70;7.70;;;;;;;15.03;100.00;97470.30;109767;1251;61743;-52
2023/10/27 00:15:35;;;;;;;9.10;6.60;;;;;;;14.99;100.00;97471.20;109333;1251;59101;-52
2023/10/27 00:18:02;;;;;;;31.50;17.20;;;;;;;14.87;100.00;97469.30;109693;1252;74452;-52
2023/10/27 00:20:29;;;;;;;15.80;10.40;;;;;;;14.97;100.00;97467.46;109643;1253;67977;-52
2023/10/27 00:22:55;;;;;;;30.70;18.40;;;;;;;14.87;100.00;97469.27;109596;1253;71271;-53
2023/10/27 00:25:23;;;;;;;21.40;11.80;;;;;;;14.85;100.00;97469.63;109556;1253;60376;-52
2023/10/27 00:27:50;;;;;;;26.50;15.60;;;;;;;14.90;100.00;97466.84;109571;1254;60406;-52
2023/10/27 00:30:17;;;;;;;37.40;22.70;;;;;;;15.03;100.00;97468.61;109629;1253;73509;-53
2023/10/27 00:32:43;;;;;;;20.70;13.60;;;;;;;15.03;100.00;97467.92;109586;1252;67422;-53
2023/10/27 00:35:10;;;;;;;34.40;19.90;;;;;;;14.88;100.00;97465.07;109347;1251;72418;-53
2023/10/27 00:37:37;;;;;;;18.30;11.30;;;;;;;14.73;100.00;97466.90;109761;1251;60538;-53
2023/10/27 00:40:04;;;;;;;25.40;14.40;;;;;;;14.68;100.00;97471.48;109748;1251;60087;-53
2023/10/27 00:42:31;;;;;;;19.90;13.20;;;;;;;14.59;100.00;97475.17;109760;1251;74725;-53
2023/10/27 00:44:58;;;;;;;14.00;8.90;;;;;;;14.61;100.00;97479.55;109749;1251;68529;-52
2023/10/27 00:47:24;;;;;;;24.90;16.10;;;;;;;14.59;100.00;97483.11;109763;1250;72644;-53
2023/10/27 00:49:51;;;;;;;33.10;19.80;;;;;;;14.65;100.00;97477.67;109744;1252;60391;-53
2023/10/27 00:52:18;;;;;;;18.20;12.60;;;;;;;14.52;100.00;97476.99;109635;1251;60323;-53
2023/10/27 00:54:45;;;;;;;18.30;11.80;;;;;;;14.51;100.00;97478.63;109564;1251;73810;-53
2023/10/27 00:57:12;;;;;;;14.20;10.00;;;;;;;14.37;100.00;97479.84;109634;1250;68842;-53
2023/10/27 00:59:39;;;;;;;46.00;25.90;;;;;;;14.36;100.00;97479.15;109590;1251;71792;-53
2023/10/27 01:02:06;;;;;;;45.40;27.80;;;;;;;14.46;100.00;97478.13;109610;1251;60392;-52
2023/10/27 01:04:33;;;;;;;32.50;17.90;;;;;;;14.39;100.00;97481.44;109697;1250;58833;-53
2023/10/27 01:06:59;;;;;;;10.70;7.90;;;;;;;14.37;100.00;97486.05;109760;1250;73486;-53
2023/10/27 01:09:26;;;;;;;13.70;10.00;;;;;;;14.34;100.00;97486.80;109740;1251;66444;-53
2023/10/27 01:11:53;;;;;;;13.30;9.60;;;;;;;14.38;100.00;97488.48;109713;1250;71516;-53
2023/10/27 01:14:20;;;;;;;11.70;8.60;;;;;;;14.39;100.00;97496.61;109635;1250;61822;-54
2023/10/27 01:16:47;;;;;;;11.80;7.70;;;;;;;14.34;100.00;97498.36;109725;1251;60178;-53
2023/10/27 01:19:13;;;;;;;12.20;8.40;;;;;;;14.43;100.00;97496.90;109417;1252;74951;-53
2023/10/27 01:21:40;;;;;;;12.00;8.70;;;;;;;14.37;100.00;97495.39;109615;1253;68798;-53
2023/10/27 01:24:07;;;;;;;8.60;7.50;;;;;;;14.28;100.00;97496.60;109639;1253;72442;-52
2023/10/27 01:26:34;;;;;;;20.70;10.10;;;;;;;14.24;100.00;97493.66;109619;1253;60584;-53
2023/10/27 01:29:00;;;;;;;9.30;7.40;;;;;;;14.34;100.00;97491.58;109283;1252;59589;-53
2023/10/27 01:31:27;;;;;;;13.60;8.00;;;;;;;14.37;100.00;97493.10;109405;1253;74579;-52
2023/10/27 01:33:54;;;;;;;14.80;7.90;;;;;;;14.42;100.00;97487.25;109618;1251;68586;-53
2023/10/27 01:36:21;;;;;;;9.10;7.60;;;;;;;14.43;100.00;97486.52;109740;1251;71232;-53
2023/10/27 01:38:47;;;;;;;12.30;8.40;;;;;;;14.39;100.00;97492.07;109728;1250;61784;-54
2023/10/27 01:41:14;;;;;;;13.10;8.90;;;;;;;14.39;100.00;97496.71;109730;1251;58930;-53
2023/10/27 01:43:41;;;;;;;23.20;10.90;;;;;;;14.36;100.00;97499.52;109773;1251;74573;-52
2023/10/27 01:46:07;;;;;;;19.10;9.40;;;;;;;14.35;100.00;97498.80;109589;1250;67353;-53
2023/10/27 01:48:36;;;;;;;15.60;8.00;;;;;;;14.33;100.00;97502.11;109613;1255;72532;-53
2023/10/27 01:51:03;;;;;;;14.20;9.20;;;;;;;14.26;100.00;97497.44;109738;1250;61597;-54
2023/10/27 01:53:31;;;;;;;23.60;12.90;;;;;;;14.15;100.00;97499.44;109760;1251;59981;-53
2023/10/27 01:55:57;;;;;;;10.40;8.40;;;;;;;14.27;100.00;97501.80;109598;1250;74460;-53
2023/10/27 01:58:27;;;;;;;16.50;9.00;;;;;;;14.43;100.00;97503.09;109747;1251;67205;-53
2023/10/27 02:00:54;;;;;;;18.00;9.10;;;;;;;14.39;100.00;97501.41;109644;1255;71729;-53
2023/10/27 02:03:21;;;;;;;12.00;9.30;;;;;;;14.40;100.00;97505.83;109618;1251;60398;-53
2023/10/27 02:05:48;;;;;;;14.30;8.10;;;;;;;14.19;100.00;97502.12;109617;1255;59023;-53
2023/10/27 02:08:16;;;;;;;12.90;8.30;;;;;;;14.19;100.00;97501.41;109800;1251;74487;-52
2023/10/27 02:10:44;;;;;;;15.90;9.50;;;;;;;14.17;100.00;97502.79;109741;1255;68521;-53
2023/10/27 02:13:10;;;;;;;13.30;9.40;;;;;;;14.33;100.00;97505.89;109761;1250;72482;-53
2023/10/27 02:15:37;;;;;;;13.00;8.50;;;;;;;14.38;100.00;97503.02;109762;1251;62400;-53
2023/10/27 02:18:04;;;;;;;15.20;9.70;;;;;;;14.42;100.00;97502.31;109672;1252;59028;-53
2023/10/27 02:20:31;;;;;;;18.10;11.30;;;;;;;14.39;100.00;97500.27;109627;1253;74666;-52
2023/10/27 02:22:57;;;;;;;16.20;12.50;;;;;;;14.44;100.00;97497.09;109606;1252;67485;-52
2023/10/27 02:25:24;;;;;;;21.20;13.60;;;;;;;14.50;100.00;97496.86;109597;1254;72374;-53
2023/10/27 02:27:51;;;;;;;93.00;46.20;;;;;;;14.48;100.00;97501.36;109584;1253;62147;-52
2023/10/27 02:30:18;;;;;;;42.20;23.50;;;;;;;14.45;100.00;97503.55;109593;1252;60123;-52
2023/10/27 02:32:44;;;;;;;67.50;36.20;;;;;;;14.46;100.00;97498.58;109428;1252;74837;-52
2023/10/27 02:35:11;;;;;;;56.40;30.60;;;;;;;14.37;100.00;97497.16;109636;1251;68798;-52
2023/10/27 02:37:37;;;;;;;79.60;42.00;;;;;;;14.39;100.00;97499.39;109740;1251;72585;-51
2023/10/27 02:40:05;;;;;;;86.50;44.10;;;;;;;14.33;100.00;97497.10;109696;1251;60466;-52
2023/10/27 02:42:32;;;;;;;40.50;23.50;;;;;;;14.28;100.00;97505.08;109702;1251;58963;-52
2023/10/27 02:44:59;;;;;;;83.70;42.40;;;;;;;14.27;100.00;97506.04;109807;1251;74393;-54
2023/10/27 02:47:25;;;;;;;51.20;29.30;;;;;;;14.34;100.00;97510.39;109505;1251;67106;-51
2023/10/27 02:49:52;;;;;;;50.00;30.70;;;;;;;14.23;100.00;97513.36;109503;1251;72574;-51
2023/10/27 02:52:19;;;;;;;37.90;23.00;;;;;;;13.97;100.00;97507.98;109663;1251;60825;-51
2023/10/27 02:54:45;;;;;;;86.80;47.30;;;;;;;13.76;100.00;97509.98;109754;1251;58977;-52
2023/10/27 02:57:12;;;;;;;79.10;48.90;;;;;;;13.82;100.00;97504.85;109535;1251;74647;-54
2023/10/27 02:59:39;;;;;;;95.00;56.00;;;;;;;13.93;100.00;97502.33;109769;1251;68547;-52
2023/10/27 03:02:06;;;;;;;32.80;23.40;;;;;;;14.03;100.00;97501.30;109622;1251;72499;-52
2023/10/27 03:04:33;;;;;;;53.90;36.30;;;;;;;13.93;100.00;97506.84;109700;1251;61807;-52
2023/10/27 03:06:59;;;;;;;31.10;23.20;;;;;;;13.89;100.00;97507.11;109731;1251;60071;-52
2023/10/27 03:09:26;;;;;;;39.70;30.70;;;;;;;13.96;100.00;97503.55;109761;1251;74481;-52
2023/10/27 03:11:53;;;;;;;37.70;32.70;;;;;;;14.04;100.00;97504.55;109750;1251;68767;-53
2023/10/27 03:14:19;;;;;;;57.60;47.00;;;;;;;14.01;100.00;97508.29;109748;1250;72409;-53
2023/10/27 03:16:46;;;;;;;82.90;69.80;;;;;;;13.97;100.00;97504.35;109717;1251;61793;-53
2023/10/27 03:19:12;;;;;;;72.60;64.00;;;;;;;14.03;100.00;97504.48;109552;1253;60011;-53
2023/10/27 03:21:39;;;;;;;94.60;74.10;;;;;;;14.01;100.00;97505.46;109580;1254;74507;-53
2023/10/27 03:24:06;;;;;;;335.60;214.00;;;;;;;14.10;100.00;97503.57;109571;1252;67441;-53
2023/10/27 03:26:33;;;;;;;151.90;106.10;;;;;;;14.07;100.00;97495.11;109552;1252;71508;-53
2023/10/27 03:29:00;;;;;;;682.70;272.50;;;;;;;14.02;100.00;97494.70;109506;1253;60680;-53
2023/10/27 03:31:27;;;;;;;1328.90;649.20;;;;;;;13.97;100.00;97490.46;109578;1253;59182;-53
2023/10/27 03:33:53;;;;;;;689.10;384.90;;;;;;;14.05;100.00;97489.09;109629;1251;74366;-53
2023/10/27 03:36:21;;;;;;;213.90;115.10;;;;;;;13.92;100.00;97491.39;109534;1251;67794;-53
2023/10/27 03:38:47;;;;;;;52.80;37.50;;;;;;;13.96;100.00;97490.89;109755;1251;72452;-53
2023/10/27 03:41:14;;;;;;;54.00;36.20;;;;;;;14.06;100.00;97487.05;109730;1251;60500;-53
2023/10/27 03:43:40;;;;;;;217.60;109.00;;;;;;;14.16;100.00;97488.13;109794;1251;58938;-53
2023/10/27 03:46:07;;;;;;;135.50;71.00;;;;;;;14.22;100.00;97491.97;109335;1251;72256;-53
2023/10/27 03:48:35;;;;;;;95.50;49.90;;;;;;;14.13;100.00;97488.02;109766;1251;68574;-53
2023/10/27 03:51:08;;;;;;;133.00;68.00;;;;;;;14.15;100.00;97480.94;109715;1251;71724;-53
2023/10/27 03:53:35;;;;;;;51.20;32.50;;;;;;;14.16;100.00;97478.17;109717;1251;61930;-53
2023/10/27 03:56:01;;;;;;;34.50;25.10;;;;;;;14.19;100.00;97484.05;109562;1251;60108;-53
2023/10/27 03:58:30;;;;;;;49.60;35.00;;;;;;;14.11;100.00;97485.16;109748;1251;73593;-52
2023/10/27 04:01:13;;;;;;;28.50;20.70;;;;;;;13.98;100.00;97488.76;109770;1251;68591;-52
2023/10/27 04:03:40;;;;;;;37.20;27.40;;;;;;;14.00;100.00;97488.98;109738;1250;71413;-53
2023/10/27 04:06:06;;;;;;;160.00;76.40;;;;;;;13.98;100.00;97484.19;109533;1255;61771;-53
2023/10/27 04:08:33;;;;;;;184.50;83.40;;;;;;;14.00;100.00;97482.83;109718;1251;60196;-53
2023/10/27 04:11:00;;;;;;;299.90;133.60;;;;;;;14.06;100.00;97481.17;109812;1251;74486;-52
2023/10/27 04:13:26;;;;;;;304.20;143.40;;;;;;;14.01;100.00;97481.55;109755;1251;68503;-53
2023/10/27 04:15:53;;;;;;;262.10;135.80;;;;;;;14.10;100.00;97483.29;109773;1251;72359;-52
2023/10/27 04:18:20;;;;;;;42.80;26.50;;;;;;;14.09;100.00;97486.46;109571;1253;60517;-52
2023/10/27 04:20:46;;;;;;;203.90;76.90;;;;;;;14.05;100.00;97486.46;109523;1252;58963;-54
2023/10/27 04:23:14;;;;;;;35.40;24.70;;;;;;;14.07;100.00;97491.02;109415;1252;74948;-54
2023/10/27 04:25:41;;;;;;;102.80;36.30;;;;;;;14.05;100.00;97491.16;109518;1254;68503;-54
2023/10/27 04:28:08;;;;;;;47.90;26.40;;;;;;;13.94;100.00;97487.52;109490;1252;72685;-53
2023/10/27 04:30:36;;;;;;;281.20;72.00;;;;;;;13.86;100.00;97489.59;109413;1254;61642;-54
2023/10/27 04:33:04;;;;;;;1460.90;378.60;;;;;;;13.90;100.00;97486.73;109440;1253;153353;-54
2023/10/27 04:35:34;;;;;;;676.20;179.50;;;;;;;13.86;100.00;97480.89;109706;1251;73715;-54
2023/10/27 04:38:01;;;;;;;436.20;114.30;;;;;;;13.77;100.00;97479.31;109749;1250;67282;-53
2023/10/27 04:40:28;;;;;;;744.30;203.00;;;;;;;13.80;100.00;97483.73;109366;1251;71553;-54
2023/10/27 04:42:58;;;;;;;118.60;47.90;;;;;;;13.81;100.00;97480.63;109711;1251;60648;-54
2023/10/27 04:45:25;;;;;;;43.20;27.20;;;;;;;13.92;100.00;97472.95;109775;1251;58955;-52
2023/10/27 04:47:52;;;;;;;225.90;72.90;;;;;;;13.94;100.00;97474.58;109376;1253;73189;-53
2023/10/27 04:50:19;;;;;;;71.60;32.70;;;;;;;14.00;100.00;97471.64;109344;1254;68590;-52
2023/10/27 04:52:45;;;;;;;27.60;20.20;;;;;;;13.99;100.00;97471.67;109551;1252;72534;-54
2023/10/27 04:55:32;;;;;;;28.50;19.50;;;;;;;13.97;100.00;97469.98;109338;1253;61726;-52
2023/10/27 04:57:59;;;;;;;32.10;21.00;;;;;;;13.87;100.00;97466.57;109539;1252;60342;-53
2023/10/27 05:00:26;;;;;;;29.70;22.70;;;;;;;13.86;100.00;97468.33;109558;1253;75031;-54
2023/10/27 05:02:53;;;;;;;37.70;24.70;;;;;;;13.91;100.00;97472.45;109547;1251;67605;-53
2023/10/27 05:05:20;;;;;;;131.30;64.90;;;;;;;13.86;100.00;97472.13;109543;1252;71298;-53
2023/10/27 05:07:48;;;;;;;166.60;77.90;;;;;;;13.81;100.00;97473.68;109504;1252;60964;-54
2023/10/27 05:10:15;;;;;;;104.10;60.10;;;;;;;13.73;100.00;97479.46;109563;1252;59959;-53
2023/10/27 05:12:41;;;;;;;103.80;58.20;;;;;;;13.70;100.00;97485.27;109548;1253;73439;-53
2023/10/27 05:15:08;;;;;;;67.30;41.20;;;;;;;13.77;100.00;97486.10;109569;1253;67616;-53
2023/10/27 05:17:35;;;;;;;56.50;39.90;;;;;;;13.74;100.00;97484.50;109534;1254;71874;-52
2023/10/27 05:20:03;;;;;;;61.40;37.30;;;;;;;13.80;100.00;97490.89;109489;1253;62380;-52
2023/10/27 05:22:31;;;;;;;55.50;37.30;;;;;;;14.05;100.00;97493.41;109386;1252;59146;-52
2023/10/27 05:24:58;;;;;;;58.10;41.10;;;;;;;14.17;100.00;97499.27;109561;1253;74376;-52
2023/10/27 05:27:24;;;;;;;37.60;26.30;;;;;;;14.08;100.00;97503.45;109611;1252;67307;-53
2023/10/27 05:29:51;;;;;;;30.10;22.40;;;;;;;14.29;100.00;97500.18;109698;1250;72500;-52
2023/10/27 05:32:17;;;;;;;164.80;95.90;;;;;;;14.22;100.00;97502.23;109647;1251;60465;-53
2023/10/27 05:34:44;;;;;;;111.60;74.10;;;;;;;14.21;100.00;97507.59;109643;1250;58952;-52
2023/10/27 05:37:11;;;;;;;119.50;74.50;;;;;;;14.22;100.00;97502.23;109744;1250;74651;-53
2023/10/27 05:39:38;;;;;;;31.50;23.70;;;;;;;14.11;100.00;97498.10;109751;1251;68723;-53
2023/10/27 05:42:05;;;;;;;46.90;34.10;;;;;;;14.18;100.00;97503.77;109766;1251;71399;-53
2023/10/27 05:44:32;;;;;;;29.00;22.20;;;;;;;14.32;100.00;97508.02;109691;1250;61905;-52
2023/10/27 05:46:58;;;;;;;33.20;24.20;;;;;;;14.30;100.00;97518.04;109749;1250;58943;-53
2023/10/27 05:49:25;;;;;;;36.80;23.30;;;;;;;14.41;100.00;97522.70;109755;1250;74863;-51
2023/10/27 05:51:52;;;;;;;29.70;22.20;;;;;;;14.62;100.00;97522.46;109734;1250;68627;-53
2023/10/27 05:54:18;;;;;;;30.10;22.70;;;;;;;15.02;100.00;97520.14;109733;1250;72444;-53
2023/10/27 05:56:45;;;;;;;33.30;22.10;;;;;;;15.13;100.00;97525.25;109729;1251;60204;-53
2023/10/27 05:59:12;;;;;;;32.20;21.80;;;;;;;15.01;100.00;97534.52;109721;1251;59603;-54
2023/10/27 06:01:38;;;;;;;29.10;20.50;;;;;;;14.73;100.00;97530.66;109768;1250;74554;-53
2023/10/27 06:04:05;;;;;;;28.20;20.30;;;;;;;14.59;100.00;97527.08;109766;1250;68445;-52
2023/10/27 06:06:32;;;;;;;55.90;30.20;;;;;;;14.76;100.00;97531.03;109751;1250;72462;-52
2023/10/27 06:08:59;;;;;;;28.20;20.40;;;;;;;15.49;100.00;97534.33;109725;1250;60633;-53
2023/10/27 06:11:26;;;;;;;40.70;27.60;;;;;;;15.74;100.00;97540.36;109745;1250;60139;-52
2023/10/27 06:13:53;;;;;;;56.10;31.40;;;;;;;15.77;100.00;97545.40;109735;1250;74505;-52
2023/10/27 06:16:20;;;;;;;37.40;24.20;;;;;;;15.66;100.00;97538.70;109756;1250;68717;-52
2023/10/27 06:18:46;;;;;;;42.10;30.50;;;;;;;15.80;100.00;97535.52;109575;1252;72591;-53
2023/10/27 06:21:13;;;;;;;22.40;17.40;;;;;;;16.03;100.00;97538.38;109537;1253;60532;-53
2023/10/27 06:23:40;;;;;;;32.50;22.90;;;;;;;16.16;100.00;97543.25;109512;1252;59021;-52
2023/10/27 06:26:06;;;;;;;20.30;13.90;;;;;;;16.39;100.00;97542.80;109522;1252;73681;-52
2023/10/27 06:28:35;;;;;;;33.10;22.90;;;;;;;16.59;100.00;97537.19;109569;1252;67425;-52
2023/10/27 06:31:04;;;;;;;19.00;13.80;;;;;;;16.89;100.00;97538.48;109507;1253;72779;-53
2023/10/27 06:33:32;;;;;;;47.90;31.90;;;;;;;17.03;100.00;97540.93;109517;1252;61807;-52
2023/10/27 06:35:59;;;;;;;35.10;21.90;;;;;;;16.98;100.00;97539.04;109709;1250;58975;-53
2023/10/27 06:38:26;;;;;;;37.40;23.50;;;;;;;16.85;100.00;97541.77;109736;1250;74643;-53
2023/10/27 06:40:53;;;;;;;147.30;90.60;;;;;;;16.82;100.00;97542.98;109777;1250;68979;-53
2023/10/27 06:43:20;;;;;;;165.30;83.20;;;;;;;16.89;100.00;97538.79;109753;1250;72667;-53
2023/10/27 06:45:47;;;;;;;43.70;24.80;;;;;;;17.48;100.00;97538.27;109684;1250;60744;-53
2023/10/27 06:48:13;;;;;;;73.00;37.20;;;;;;;17.92;100.00;97541.19;109772;1250;60280;-55
2023/10/27 06:50:41;;;;;;;54.30;34.00;;;;;;;18.02;100.00;97537.86;109427;1251;73507;-53
2023/10/27 06:53:07;;;;;;;16.50;13.00;;;;;;;17.81;99.88;97534.56;109700;1250;69071;-52
2023/10/27 06:55:34;;;;;;;25.90;14.40;;;;;;;18.03;100.00;97537.89;109746;1250;72508;-53
2023/10/27 06:58:01;;;;;;;59.40;27.00;;;;;;;18.12;99.55;97541.33;109682;1250;61763;-54
2023/10/27 07:00:27;;;;;;;67.60;27.90;;;;;;;18.33;99.28;97545.23;109704;1250;60045;-54
2023/10/27 07:02:54;;;;;;;222.30;83.90;;;;;;;18.50;97.85;97548.33;109751;1250;73448;-52
2023/10/27 07:05:23;;;;;;;311.80;113.30;;;;;;;18.77;96.22;97553.66;109745;1250;67308;-53
2023/10/27 07:07:51;;;;;;;96.00;37.50;;;;;;;18.56;96.90;97553.50;109731;1250;72221;-53
2023/10/27 07:10:18;;;;;;;330.20;120.20;;;;;;;17.95;98.62;97556.59;109682;1250;62023;-53
2023/10/27 07:12:45;;;;;;;333.70;110.90;;;;;;;17.46;100.00;97558.84;109726;1250;60387;-53
2023/10/27 07:15:12;;;;;;;161.80;57.80;;;;;;;17.38;100.00;97559.69;109766;1251;73640;-53
2023/10/27 07:17:40;;;;;;;1211.80;600.60;;;;;;;17.38;100.00;97563.73;109662;1250;68754;-53
2023/10/27 07:20:08;;;;;;;245.40;96.30;;;;;;;17.88;99.84;97566.88;109359;1252;71227;-53
2023/10/27 07:22:36;;;;;;;138.30;50.00;;;;;;;18.64;99.71;97573.95;109477;1251;60563;-53
2023/10/27 07:25:06;;;;;;;72.50;30.70;;;;;;;19.09;93.33;97581.27;109550;1252;60304;-53
2023/10/27 07:27:33;;;;;;;30.30;14.10;;;;;;;19.25;90.27;97578.71;109580;1252;74550;-51
2023/10/27 07:30:00;;;;;;;26.70;13.20;;;;;;;18.81;92.38;97581.61;109540;1252;67247;-57
2023/10/27 07:32:26;;;;;;;15.60;8.50;;;;;;;17.97;95.47;97576.96;109407;1253;71973;-53
2023/10/27 07:34:53;;;;;;;46.40;21.20;;;;;;;17.70;98.89;97580.23;109573;1250;61742;-53
2023/10/27 07:37:21;;;;;;;611.30;255.00;;;;;;;17.57;100.00;97580.36;109706;1250;59178;-52
2023/10/27 07:39:48;;;;;;;174.20;64.80;;;;;;;17.54;100.00;97578.12;109761;1250;74513;-53
2023/10/27 07:42:15;;;;;;;197.50;77.40;;;;;;;17.49;100.00;97579.20;109739;1250;67594;-54
2023/10/27 07:45:31;;;;;;;61.00;27.90;;;;;;;17.27;100.00;97587.40;109716;1251;72351;-52
2023/10/27 07:47:58;;;;;;;30.40;16.10;;;;;;;17.21;100.00;97585.52;109715;1250;60343;-53
2023/10/27 07:50:25;;;;;;;30.40;15.30;;;;;;;17.44;100.00;97586.14;109372;1251;60347;-52
2023/10/27 07:52:52;;;;;;;39.20;18.60;;;;;;;17.51;100.00;97592.75;109646;1250;74536;-52
2023/10/27 07:55:18;;;;;;;15.50;10.60;;;;;;;17.49;100.00;97594.95;109776;1250;66437;-53
2023/10/27 07:57:45;;;;;;;297.80;114.80;;;;;;;17.13;100.00;97598.23;109384;1251;72895;-54
2023/10/27 08:00:14;;;;;;;774.90;428.00;;;;;;;17.00;100.00;97596.08;109706;1250;60853;-52
2023/10/27 08:02:41;;;;;;;221.50;85.80;;;;;;;17.60;99.92;97597.95;109373;1251;59086;-53
2023/10/27 08:05:08;;;;;;;109.90;40.20;;;;;;;18.10;96.76;97596.77;109758;1250;74408;-53
2023/10/27 08:07:35;;;;;;;353.80;134.10;;;;;;;18.10;96.00;97599.48;109717;1250;68594;-53
2023/10/27 08:10:07;;;;;;;298.80;157.10;;;;;;;17.74;96.98;97599.31;109524;1251;71616;-53
2023/10/27 08:12:35;;;;;;;215.00;107.10;;;;;;;17.47;99.04;97606.84;109743;1250;62009;-52
2023/10/27 08:15:05;;;;;;;274.20;112.10;;;;;;;17.32;100.00;97603.15;109758;1250;60113;-53
2023/10/27 08:17:35;;;;;;;112.90;46.80;;;;;;;17.36;99.77;97609.17;109699;1250;74554;-52
2023/10/27 08:20:02;;;;;;;510.00;249.80;;;;;;;17.25;100.00;97610.88;109392;1253;68735;-52
2023/10/27 08:22:32;;;;;;;296.20;122.70;;;;;;;17.40;100.00;97613.92;109199;1252;72815;-53
2023/10/27 08:24:59;;;;;;;184.30;94.80;;;;;;;17.52;99.87;97612.46;109542;1252;61923;-52
2023/10/27 08:27:26;;;;;;;63.70;34.80;;;;;;;17.39;99.94;97619.80;109380;1251;58988;-52
2023/10/27 08:29:54;;;;;;;181.60;74.60;;;;;;;17.52;99.87;97626.88;109549;1252;74657;-53
2023/10/27 08:32:21;;;;;;;132.70;53.20;;;;;;;17.85;98.26;97625.36;109518;1252;67420;-53
2023/10/27 08:34:49;;;;;;;209.40;89.40;;;;;;;17.73;97.66;97625.59;109590;1251;71487;-52
2023/10/27 08:37:16;;;;;;;118.20;48.50;;;;;;;17.75;98.89;97624.48;109565;1250;62079;-52
2023/10/27 08:39:43;;;;;;;168.50;65.30;;;;;;;17.81;98.24;97626.95;109760;1250;58983;-53
2023/10/27 08:42:13;;;;;;;98.10;44.40;;;;;;;17.57;98.69;97616.48;109472;1251;73340;-52
2023/10/27 08:44:42;;;;;;;133.50;56.00;;;;;;;17.77;98.33;97619.34;109623;1251;68709;-53
2023/10/27 08:47:12;;;;;;;428.70;175.60;;;;;;;17.93;97.96;97624.94;109190;1254;72664;-65
2023/10/27 08:49:38;;;;;;;194.40;81.10;;;;;;;17.83;98.31;97617.34;109340;1253;61909;-69
2023/10/27 08:52:06;;;;;;;129.50;50.60;;;;;;;17.85;99.18;97615.77;109117;1254;59183;-75
2023/10/27 08:54:37;;;;;;;168.00;68.60;;;;;;;17.78;99.02;97623.55;109215;1256;74176;-64
2023/10/27 08:57:05;;;;;;;437.80;224.90;;;;;;;17.90;99.70;97627.43;109165;1255;68878;-55
2023/10/27 08:59:31;;;;;;;354.50;131.60;;;;;;;17.84;98.65;97624.09;109123;1255;72680;-55
2023/10/27 09:01:58;;;;;;;247.80;90.50;;;;;;;17.96;99.05;97628.52;109112;1256;62177;-60
2023/10/27 09:04:25;;;;;;;292.10;111.30;;;;;;;17.90;97.70;97625.34;109338;1256;60508;-55
2023/10/27 09:06:52;;;;;;;156.20;62.90;;;;;;;17.99;98.37;97613.77;109168;1256;75459;-54
2023/10/27 09:09:20;;;;;;;34.80;14.90;;;;;;;18.17;96.11;97612.22;109133;1256;68713;-56
2023/10/27 09:11:51;;;;;;;130.50;51.30;;;;;;;18.32;93.08;97612.02;109325;1256;71927;-54
2023/10/27 09:14:18;;;;;;;263.60;102.50;;;;;;;18.78;88.43;97603.77;109140;1256;61009;-54
2023/10/27 09:16:45;;;;;;;199.20;80.70;;;;;;;19.05;87.67;97612.96;109334;1255;59689;-53
2023/10/27 09:19:24;;;;;;;360.90;139.20;;;;;;;18.98;86.36;97610.34;109042;1256;74278;-55
2023/10/27 09:21:52;;;;;;;410.30;162.80;;;;;;;18.78;86.62;97607.10;109378;1254;68905;-54
2023/10/27 09:24:26;;;;;;;234.50;92.70;;;;;;;18.90;87.19;97608.84;109328;1254;71430;-54
2023/10/27 09:26:53;;;;;;;24.30;13.60;;;;;;;19.03;87.00;97609.52;109628;1250;60432;-56
2023/10/27 09:29:20;;;;;;;141.90;58.50;;;;;;;18.98;85.81;97610.97;109655;1250;60292;-54
2023/10/27 09:31:47;;;;;;;91.00;39.30;;;;;;;19.08;84.15;97606.58;109518;1251;75666;-53
2023/10/27 09:34:18;;;;;;;208.80;82.80;;;;;;;19.36;81.49;97597.11;109568;1252;68789;-54
2023/10/27 09:36:46;;;;;;;93.40;39.00;;;;;;;19.79;79.06;97598.39;109253;1253;72574;-54
2023/10/27 09:39:16;;;;;;;283.10;138.80;;;;;;;20.04;74.77;97598.74;109458;1252;61157;-55
2023/10/27 09:41:44;;;;;;;378.90;133.70;;;;;;;20.09;73.04;97595.33;109260;1253;59839;-54
2023/10/27 09:44:13;;;;;;;314.40;130.70;;;;;;;20.01;73.58;97599.63;109548;1252;74285;-54
2023/10/27 09:46:47;;;;;;;95.50;43.50;;;;;;;19.75;75.58;97598.14;109538;1251;68786;-54
2023/10/27 09:49:13;;;;;;;170.30;77.90;;;;;;;19.35;77.47;97594.14;109567;1252;72718;-54
2023/10/27 09:51:42;;;;;;;30.40;16.60;;;;;;;19.32;79.17;97590.66;109414;1251;61879;-54
2023/10/27 09:54:09;;;;;;;21.00;12.50;;;;;;;19.32;79.21;97583.58;109484;1253;60367;-54
2023/10/27 09:56:35;;;;;;;131.50;51.70;;;;;;;19.17;78.54;97580.91;109558;1252;74217;-54
2023/10/27 09:59:02;;;;;;;284.10;112.60;;;;;;;19.31;79.35;97582.02;109591;1252;68609;-54
2023/10/27 10:01:29;;;;;;;130.40;54.20;;;;;;;19.38;78.55;97582.46;109468;1251;71554;-53
2023/10/27 10:03:56;;;;;;;43.50;22.50;;;;;;;19.95;76.90;97577.80;109487;1252;61817;-54
2023/10/27 10:06:23;;;;;;;90.40;61.80;;;;;;;21.14;70.10;97579.32;109219;1253;59997;-55
2023/10/27 10:09:08;;;;;;;75.40;48.80;;;;;;;21.46;66.66;97576.98;109664;1250;74016;-53
2023/10/27 10:11:55;;;;;;;82.40;39.60;;;;;;;21.47;66.69;97581.12;109756;1250;67539;-54
2023/10/27 10:14:40;;;;;;;35.10;18.30;;;;;;;21.31;67.58;97579.20;109536;1251;71167;-55
2023/10/27 10:17:08;;;;;;;14.00;8.30;;;;;;;21.01;68.11;97574.48;109661;1250;61199;-55
2023/10/27 10:19:48;;;;;;;13.50;10.00;;;;;;;20.57;68.18;97567.19;109719;1250;59776;-55
2023/10/27 10:22:39;;;;;;;43.20;24.90;;;;;;;20.22;71.14;97560.14;109503;1251;75337;-55
2023/10/27 10:25:18;;;;;;;19.50;12.20;;;;;;;20.34;73.08;97565.53;109000;1259;67557;-55
2023/10/27 10:28:09;;;;;;;14.30;10.20;;;;;;;20.52;74.14;97557.77;108998;1259;72749;-55
2023/10/27 10:30:43;;;;;;;11.70;8.50;;;;;;;20.61;70.72;97552.95;108948;1258;62213;-54
2023/10/27 10:33:16;;;;;;;15.10;7.20;;;;;;;20.63;71.67;97551.94;109012;1259;60174;-54
2023/10/27 10:35:44;;;;;;;11.20;7.30;;;;;;;20.83;70.93;97549.80;108922;1259;74131;-54
2023/10/27 10:38:19;;;;;;;11.90;7.50;;;;;;;20.91;68.66;97552.23;109024;1259;68063;-54
2023/10/27 10:40:56;;;;;;;15.00;8.20;;;;;;;20.75;70.80;97554.83;108993;1259;71178;-55
2023/10/27 10:43:23;;;;;;;18.60;12.30;;;;;;;20.79;69.50;97555.83;108826;1259;62019;-53
2023/10/27 10:45:54;;;;;;;37.80;21.40;;;;;;;20.53;64.11;97552.42;108901;1259;60535;-55
2023/10/27 10:48:22;;;;;;;45.90;26.80;;;;;;;20.34;62.46;97558.23;108957;1259;75367;-54
2023/10/27 10:50:50;;;;;;;23.40;15.90;;;;;;;20.29;62.19;97557.35;108992;1259;69037;-54
2023/10/27 10:53:19;;;;;;;11.10;7.50;;;;;;;20.43;62.42;97550.88;108847;1259;73011;-55
2023/10/27 10:55:46;;;;;;;13.60;8.00;;;;;;;20.28;62.24;97546.98;108986;1259;62089;-54
2023/10/27 10:58:23;;;;;;;14.70;9.70;;;;;;;20.22;62.66;97545.11;108953;1259;60335;-54
2023/10/27 11:00:50;;;;;;;17.10;11.00;;;;;;;20.09;62.71;97538.52;109024;1259;75393;-54
2023/10/27 11:03:18;;;;;;;12.10;8.90;;;;;;;20.03;64.23;97533.84;109632;1250;68774;-55
2023/10/27 11:05:45;;;;;;;13.70;9.40;;;;;;;19.85;64.07;97533.88;109617;1250;72688;-55